This is the latest recevied weather packets stored in our database for station/object AD7ZD. If no packets are shown the sender has not sent any weather packets the latest 10 day(s).
| Time | Temp. | Humidity | Pressure | Rain* | Wind** | Luminosity | Snow |
|---|---|---|---|---|---|---|---|
| 1777794656 | 14.44° C | 46% | 1011.7 hPa | 0 mm | - | 0 W/m² | - |
| 1777794352 | 14.44° C | 46% | 1011.8 hPa | 0 mm | - | 0 W/m² | - |
| 1777794048 | 15° C | 43% | 1011.8 hPa | 0 mm | - | 0 W/m² | - |
| 1777793744 | 15.56° C | 42% | 1011.7 hPa | 0 mm | - | 0 W/m² | - |
| 1777793443 | 15.56° C | 41% | 1011.8 hPa | 0 mm | - | 0 W/m² | - |
| 1777793140 | 16.11° C | 40% | 1011.7 hPa | 0 mm | - | 0 W/m² | - |
| 1777792837 | 16.67° C | 39% | 1011.9 hPa | 0 mm | - | 0 W/m² | - |
| 1777792534 | 16.67° C | 39% | 1011.9 hPa | 0 mm | - | 0 W/m² | - |
| 1777792231 | 16.67° C | 39% | 1011.9 hPa | 0 mm | - | 0 W/m² | - |
| 1777791927 | 17.22° C | 37% | 1011.9 hPa | 0 mm | - | 0 W/m² | - |
| 1777791626 | 16.67° C | 39% | 1012 hPa | 0 mm | - | 0 W/m² | - |
| 1777791323 | 16.67° C | 39% | 1011.6 hPa | 0 mm | - | 0 W/m² | - |
| 1777791020 | 16.67° C | 40% | 1011.8 hPa | 0 mm | - | 0 W/m² | - |
| 1777790718 | 17.78° C | 33% | 1011.7 hPa | 0 mm | - | 0 W/m² | - |
| 1777790414 | 18.89° C | 31% | 1011.7 hPa | 0 mm | - | 0 W/m² | - |
| 1777790112 | 18.89° C | 30% | 1011.4 hPa | 0 mm | - | 0 W/m² | - |
| 1777789810 | 19.44° C | 29% | 1011.7 hPa | 0 mm | - | 0 W/m² | - |
| 1777789508 | 18.89° C | 31% | 1011.6 hPa | 0 mm | - | 0 W/m² | - |
| 1777789206 | 18.33° C | 33% | 1011.9 hPa | 0 mm | - | 0 W/m² | - |
| 1777788903 | 18.89° C | 32% | 1012 hPa | 0 mm | - | 0 W/m² | - |
| 1777788599 | 17.78° C | 35% | 1012.1 hPa | 0 mm | - | 0 W/m² | - |
| 1777788299 | 17.78° C | 36% | 1012.2 hPa | 0 mm | - | 0 W/m² | - |
| 1777787995 | 17.78° C | 36% | 1012.2 hPa | 0 mm | - | 0 W/m² | - |
| 1777787690 | 17.78° C | 37% | 1012.2 hPa | 0 mm | - | 0 W/m² | - |
| 1777787386 | 17.78° C | 37% | 1012.1 hPa | 0 mm | - | 0 W/m² | - |
* Rain latest hour (hover to see other rain measurements)
** Current wind speed in m/s (hover to see current wind gust speed)